createdAt,value
2024-03-05T00:00:32.650Z,56.99
2024-03-05T00:02:59.595Z,56.45
2024-03-05T00:05:26.613Z,56.73
2024-03-05T00:07:54.556Z,57.07
2024-03-05T00:10:21.622Z,56.70
2024-03-05T00:12:48.601Z,56.72
2024-03-05T00:15:17.019Z,56.83
2024-03-05T00:17:44.377Z,56.69
2024-03-05T00:20:19.893Z,56.69
2024-03-05T00:22:51.721Z,56.80
2024-03-05T00:25:19.540Z,56.77
2024-03-05T00:27:46.885Z,57.05
2024-03-05T00:30:15.327Z,57.03
2024-03-05T00:32:42.702Z,56.62
2024-03-05T00:35:11.009Z,57.29
2024-03-05T00:37:39.164Z,57.38
2024-03-05T00:40:09.873Z,57.08
2024-03-05T00:42:37.633Z,57.39
2024-03-05T00:45:09.039Z,57.05
2024-03-05T00:47:37.332Z,57.17
2024-03-05T00:50:05.987Z,57.33
2024-03-05T00:52:33.719Z,57.40
2024-03-05T00:55:01.654Z,57.74
2024-03-05T00:57:30.166Z,57.68
2024-03-05T00:59:57.731Z,57.45
2024-03-05T01:02:24.984Z,57.25
2024-03-05T01:04:54.582Z,57.46
2024-03-05T01:07:22.271Z,57.58
2024-03-05T01:09:50.612Z,57.62
2024-03-05T01:12:18.012Z,57.78
2024-03-05T01:14:45.900Z,57.62
2024-03-05T01:17:13.915Z,58.04
2024-03-05T01:19:41.219Z,58.03
2024-03-05T01:22:08.406Z,58.02
2024-03-05T01:24:35.600Z,58.61
2024-03-05T01:27:02.641Z,58.36
2024-03-05T01:29:31.939Z,58.26
2024-03-05T01:32:01.249Z,58.52
2024-03-05T01:34:31.355Z,58.19
2024-03-05T01:36:58.917Z,58.01
2024-03-05T01:39:28.108Z,57.79
2024-03-05T01:41:56.508Z,58.08
2024-03-05T01:44:24.249Z,58.32
2024-03-05T01:46:55.083Z,58.61
2024-03-05T01:49:23.063Z,57.94
2024-03-05T01:51:50.630Z,57.93
2024-03-05T01:54:19.419Z,57.72
2024-03-05T01:56:55.494Z,57.95
2024-03-05T01:59:23.028Z,57.75
2024-03-05T02:01:50.303Z,57.87
2024-03-05T02:04:18.522Z,57.46
2024-03-05T02:06:45.907Z,57.18
2024-03-05T02:09:12.949Z,57.22
2024-03-05T02:11:52.248Z,57.32
2024-03-05T02:14:24.327Z,57.22
2024-03-05T02:16:51.688Z,57.65
2024-03-05T02:19:18.749Z,57.49
2024-03-05T02:21:46.091Z,57.55
2024-03-05T02:24:13.001Z,58.56
2024-03-05T02:26:40.289Z,58.26
2024-03-05T02:29:10.226Z,58.70
2024-03-05T02:31:37.347Z,58.80
2024-03-05T02:34:06.106Z,58.40
2024-03-05T02:36:33.178Z,58.90
2024-03-05T02:39:00.064Z,58.87
2024-03-05T02:41:26.861Z,58.61
2024-03-05T02:43:53.726Z,59.25
2024-03-05T02:46:20.721Z,59.21
2024-03-05T02:48:47.709Z,59.43
2024-03-05T02:51:14.863Z,60.10
2024-03-05T02:53:41.652Z,60.05
2024-03-05T02:56:11.224Z,60.22
2024-03-05T02:58:38.334Z,60.28
2024-03-05T03:01:05.259Z,60.89
2024-03-05T03:03:32.177Z,60.83
2024-03-05T03:05:58.944Z,60.74
2024-03-05T03:08:25.778Z,60.64
2024-03-05T03:10:52.669Z,61.10
2024-03-05T03:13:19.605Z,61.38
2024-03-05T03:15:48.662Z,60.76
2024-03-05T03:18:15.668Z,61.22
2024-03-05T03:20:42.869Z,61.02
2024-03-05T03:23:09.658Z,61.08
2024-03-05T03:25:38.074Z,61.21
2024-03-05T03:28:09.090Z,61.54
2024-03-05T03:30:35.921Z,61.60
2024-03-05T03:33:05.831Z,60.98
2024-03-05T03:35:33.330Z,61.13
2024-03-05T03:38:00.233Z,60.58
2024-03-05T03:40:27.229Z,60.66
2024-03-05T03:42:54.113Z,61.28
2024-03-05T03:45:21.239Z,60.93
2024-03-05T03:47:48.600Z,60.86
2024-03-05T03:50:17.040Z,60.85
2024-03-05T03:52:44.507Z,61.24
2024-03-05T03:55:11.422Z,61.61
2024-03-05T03:57:38.469Z,61.46
2024-03-05T04:00:09.376Z,61.16
2024-03-05T04:02:41.749Z,61.02
2024-03-05T04:05:10.844Z,61.28
2024-03-05T04:07:38.013Z,61.51
2024-03-05T04:10:07.427Z,61.44
2024-03-05T04:12:35.308Z,61.75
2024-03-05T04:15:02.255Z,61.90
2024-03-05T04:17:29.298Z,61.97
2024-03-05T04:19:57.473Z,61.48
2024-03-05T04:22:24.807Z,61.80
2024-03-05T04:24:56.601Z,61.92
2024-03-05T04:27:25.336Z,62.07
2024-03-05T04:29:57.824Z,61.64
2024-03-05T04:32:28.630Z,61.56
2024-03-05T04:35:02.068Z,61.77
2024-03-05T04:37:32.052Z,61.91
2024-03-05T04:39:59.616Z,62.19
2024-03-05T04:42:27.180Z,62.24
2024-03-05T04:44:56.753Z,62.22
2024-03-05T04:47:26.147Z,61.91
2024-03-05T04:49:53.325Z,61.87
2024-03-05T04:52:20.301Z,61.64
2024-03-05T04:54:47.140Z,61.54
2024-03-05T04:57:14.283Z,61.74
2024-03-05T04:59:41.837Z,61.58
2024-03-05T05:02:08.707Z,61.55
2024-03-05T05:04:38.855Z,61.69
2024-03-05T05:07:08.968Z,61.44
2024-03-05T05:09:37.545Z,61.62
2024-03-05T05:12:04.584Z,61.06
2024-03-05T05:14:32.375Z,61.67
2024-03-05T05:17:01.004Z,60.93
2024-03-05T05:19:27.870Z,61.67
2024-03-05T05:21:54.707Z,61.42
2024-03-05T05:24:21.549Z,61.29
2024-03-05T05:26:48.466Z,61.72
2024-03-05T05:29:23.979Z,61.72
2024-03-05T05:32:00.778Z,61.70
2024-03-05T05:34:27.686Z,61.46
2024-03-05T05:36:54.843Z,61.29
2024-03-05T05:39:25.854Z,61.47
2024-03-05T05:41:54.327Z,61.31
2024-03-05T05:44:21.575Z,61.30
2024-03-05T05:46:48.402Z,61.17
2024-03-05T05:49:21.012Z,61.26
2024-03-05T05:51:48.570Z,60.76
2024-03-05T05:54:16.570Z,60.74
2024-03-05T05:56:44.802Z,61.36
2024-03-05T05:59:12.804Z,60.96
2024-03-05T06:01:39.786Z,60.43
2024-03-05T06:04:10.289Z,61.26
2024-03-05T06:06:40.279Z,61.18
2024-03-05T06:09:10.697Z,60.76
2024-03-05T06:11:38.529Z,61.32
2024-03-05T06:14:07.724Z,61.19
2024-03-05T06:16:34.996Z,61.23
2024-03-05T06:19:02.383Z,61.43
2024-03-05T06:21:29.212Z,61.18
2024-03-05T06:23:56.329Z,60.77
2024-03-05T06:26:23.157Z,60.74
2024-03-05T06:28:50.040Z,60.84
2024-03-05T06:31:17.225Z,61.21
2024-03-05T06:33:45.244Z,60.25
2024-03-05T06:36:13.598Z,60.58
2024-03-05T06:38:40.847Z,59.80
2024-03-05T06:41:10.895Z,60.19
2024-03-05T06:43:38.699Z,60.38
2024-03-05T06:46:06.120Z,60.08
2024-03-05T06:48:34.026Z,61.10
2024-03-05T06:51:06.171Z,61.51
2024-03-05T06:53:51.556Z,60.86
2024-03-05T06:56:36.992Z,60.59
2024-03-05T06:59:05.084Z,60.78
2024-03-05T07:01:33.862Z,60.79
2024-03-05T07:04:07.775Z,61.56
2024-03-05T07:06:35.398Z,61.33
2024-03-05T07:09:02.824Z,61.55
2024-03-05T07:11:30.685Z,61.39
2024-03-05T07:13:58.969Z,60.91
2024-03-05T07:16:26.119Z,61.40
2024-03-05T07:18:56.776Z,60.46
2024-03-05T07:21:25.367Z,60.49
2024-03-05T07:23:54.826Z,60.46
2024-03-05T07:26:22.828Z,60.75
2024-03-05T07:28:49.888Z,61.35
2024-03-05T07:31:18.649Z,60.97
2024-03-05T07:33:49.090Z,61.23
2024-03-05T07:36:19.053Z,60.14
2024-03-05T07:38:46.011Z,61.03
2024-03-05T07:41:18.351Z,59.69
2024-03-05T07:43:53.573Z,60.18
2024-03-05T07:46:20.855Z,60.43
2024-03-05T07:48:47.841Z,60.25
2024-03-05T07:51:21.472Z,60.31
2024-03-05T07:53:51.779Z,60.53
2024-03-05T07:56:18.635Z,60.86
2024-03-05T07:58:45.935Z,60.59
2024-03-05T08:01:13.050Z,60.21
2024-03-05T08:03:42.358Z,59.10
2024-03-05T08:06:09.257Z,59.76
2024-03-05T08:08:36.005Z,59.94
2024-03-05T08:11:03.049Z,58.31
2024-03-05T08:13:30.101Z,58.88
2024-03-05T08:15:57.048Z,58.70
2024-03-05T08:18:23.841Z,59.44
2024-03-05T08:20:51.214Z,58.82
2024-03-05T08:23:18.063Z,59.14
2024-03-05T08:25:49.338Z,58.31
2024-03-05T08:28:16.253Z,58.30
2024-03-05T08:30:43.906Z,58.41
2024-03-05T08:33:11.187Z,58.37
2024-03-05T08:35:38.272Z,57.51
2024-03-05T08:38:05.215Z,56.59
2024-03-05T08:40:36.856Z,56.74
2024-03-05T08:43:05.139Z,56.47
2024-03-05T08:45:32.845Z,56.88
2024-03-05T08:48:00.418Z,56.89
2024-03-05T08:50:30.479Z,56.96
2024-03-05T08:52:59.506Z,56.58
2024-03-05T08:55:27.680Z,56.49
2024-03-05T08:57:55.678Z,56.73
2024-03-05T09:00:33.335Z,56.93
2024-03-05T09:03:09.582Z,56.37
2024-03-05T09:05:37.175Z,56.34
2024-03-05T09:08:06.361Z,55.99
2024-03-05T09:10:33.618Z,56.69
2024-03-05T09:13:01.169Z,56.49
2024-03-05T09:15:28.036Z,57.09
2024-03-05T09:17:55.020Z,57.43
2024-03-05T09:20:22.046Z,57.11
2024-03-05T09:22:49.014Z,56.90
2024-03-05T09:25:16.926Z,56.82
2024-03-05T09:27:46.500Z,57.24
2024-03-05T09:30:16.593Z,58.11
2024-03-05T09:32:45.504Z,57.68
2024-03-05T09:35:14.102Z,58.04
2024-03-05T09:37:45.604Z,57.57
2024-03-05T09:40:19.053Z,57.55
2024-03-05T09:42:46.714Z,57.44
2024-03-05T09:45:18.695Z,56.08
2024-03-05T09:47:48.568Z,56.82
2024-03-05T09:50:18.039Z,55.86
2024-03-05T09:52:49.640Z,56.53
2024-03-05T09:55:18.820Z,56.99
2024-03-05T09:57:49.655Z,57.04
2024-03-05T10:00:18.787Z,57.23
2024-03-05T10:02:53.012Z,57.21
2024-03-05T10:05:21.363Z,57.19
2024-03-05T10:07:49.789Z,57.70
2024-03-05T10:10:22.560Z,57.64
2024-03-05T10:12:52.725Z,58.48
2024-03-05T10:15:23.858Z,58.81
2024-03-05T10:17:54.006Z,58.85
2024-03-05T10:20:47.884Z,60.23
2024-03-05T10:23:16.629Z,60.63
2024-03-05T10:25:44.048Z,60.18
2024-03-05T10:28:11.179Z,60.69
2024-03-05T10:30:39.157Z,60.75
2024-03-05T10:33:11.448Z,60.87
2024-03-05T10:35:39.702Z,59.79
2024-03-05T10:38:13.904Z,58.93
2024-03-05T10:40:45.773Z,59.07
2024-03-05T10:43:16.966Z,57.40
2024-03-05T10:45:46.146Z,57.93
2024-03-05T10:48:16.308Z,57.14
2024-03-05T10:50:47.944Z,57.04
2024-03-05T10:53:17.603Z,56.73
2024-03-05T10:55:46.064Z,57.78
2024-03-05T10:58:14.922Z,57.53
2024-03-05T11:00:44.875Z,57.88
2024-03-05T11:03:14.263Z,57.11
2024-03-05T11:05:57.768Z,56.42
2024-03-05T11:08:30.326Z,56.40
2024-03-05T11:11:07.086Z,54.76
2024-03-05T11:13:37.169Z,53.93
2024-03-05T11:16:05.250Z,53.64
2024-03-05T11:18:36.684Z,49.28
2024-03-05T11:21:16.659Z,38.41
2024-03-05T11:23:54.011Z,33.40
2024-03-05T11:26:23.555Z,29.63
2024-03-05T11:28:54.357Z,29.70
2024-03-05T11:31:22.293Z,31.24
2024-03-05T11:34:04.848Z,32.25
2024-03-05T11:36:37.883Z,33.95
2024-03-05T11:39:05.026Z,36.05
2024-03-05T11:41:33.715Z,37.93
2024-03-05T11:44:01.218Z,39.71
2024-03-05T11:46:47.907Z,40.05
2024-03-05T11:49:16.157Z,39.24
2024-03-05T11:51:45.288Z,39.83
2024-03-05T11:54:19.383Z,39.65
2024-03-05T11:56:57.433Z,37.80
2024-03-05T11:59:40.871Z,32.46
2024-03-05T12:02:11.564Z,28.14
2024-03-05T12:04:42.812Z,25.76
2024-03-05T12:07:13.997Z,25.69
2024-03-05T12:09:41.743Z,26.36
2024-03-05T12:12:14.418Z,28.59
2024-03-05T12:14:55.894Z,30.28
2024-03-05T12:17:25.283Z,31.87
2024-03-05T12:20:09.548Z,33.83
2024-03-05T12:22:41.492Z,34.69
2024-03-05T12:25:09.441Z,35.70
2024-03-05T12:27:38.539Z,37.22
2024-03-05T12:30:07.724Z,37.97
2024-03-05T12:32:35.094Z,38.70
2024-03-05T12:35:03.218Z,38.71
2024-03-05T12:37:31.123Z,38.79
2024-03-05T12:40:00.645Z,39.90
2024-03-05T12:42:27.565Z,39.24
2024-03-05T12:45:18.554Z,40.63
2024-03-05T12:48:00.560Z,39.92
2024-03-05T12:50:30.492Z,41.13
2024-03-05T12:53:06.080Z,40.44
2024-03-05T12:55:34.018Z,40.86
2024-03-05T12:58:09.787Z,40.56
2024-03-05T13:00:37.618Z,41.30
2024-03-05T13:03:08.569Z,40.85
2024-03-05T13:05:36.893Z,41.32
2024-03-05T13:08:05.662Z,41.50
2024-03-05T13:10:33.689Z,41.39
2024-03-05T13:13:00.857Z,41.70
2024-03-05T13:15:27.858Z,41.78
2024-03-05T13:17:54.726Z,42.45
2024-03-05T13:20:21.613Z,42.85
2024-03-05T13:22:58.786Z,43.71
2024-03-05T13:25:29.794Z,44.38
2024-03-05T13:27:56.833Z,44.54
2024-03-05T13:30:27.757Z,43.80
2024-03-05T13:35:26.268Z,45.21
2024-03-05T13:37:53.118Z,45.82
2024-03-05T13:40:20.585Z,46.15
2024-03-05T13:42:49.475Z,46.04
2024-03-05T13:45:20.197Z,45.26
2024-03-05T13:47:47.261Z,45.77
2024-03-05T13:50:17.407Z,45.62
2024-03-05T13:52:46.345Z,45.27
2024-03-05T13:55:16.982Z,44.34
2024-03-05T13:57:43.744Z,43.56
2024-03-05T14:00:15.145Z,43.28
2024-03-05T14:02:41.979Z,42.71
2024-03-05T14:05:12.289Z,42.44
2024-03-05T14:07:39.619Z,43.30
2024-03-05T14:10:07.264Z,42.43
2024-03-05T14:12:36.396Z,43.41
2024-03-05T14:15:09.769Z,44.25
2024-03-05T14:17:38.070Z,44.67
2024-03-05T14:20:08.633Z,46.04
2024-03-05T14:22:39.850Z,48.34
2024-03-05T14:25:08.097Z,49.65
2024-03-05T14:27:34.970Z,49.49
2024-03-05T14:30:01.767Z,50.20
2024-03-05T14:32:28.612Z,50.45
2024-03-05T14:34:58.513Z,50.92
2024-03-05T14:37:25.679Z,51.64
2024-03-05T14:39:55.102Z,51.93
2024-03-05T14:42:21.935Z,51.68
2024-03-05T14:44:48.815Z,51.19
2024-03-05T14:47:15.966Z,51.42
2024-03-05T14:49:43.468Z,51.06
2024-03-05T14:52:10.685Z,51.28
2024-03-05T14:54:37.533Z,51.37
2024-03-05T14:57:04.676Z,49.94
2024-03-05T14:59:31.468Z,47.28
2024-03-05T15:01:58.405Z,46.76
2024-03-05T15:04:25.355Z,45.92
2024-03-05T15:06:54.427Z,45.32
2024-03-05T15:09:21.274Z,45.64
2024-03-05T15:11:48.375Z,46.67
2024-03-05T15:14:15.223Z,45.72
2024-03-05T15:16:42.162Z,47.72
2024-03-05T15:19:09.018Z,46.68
2024-03-05T15:21:35.825Z,47.28
2024-03-05T15:24:05.259Z,48.01
2024-03-05T15:26:32.552Z,48.20
2024-03-05T15:28:59.890Z,48.34
2024-03-05T15:31:27.029Z,49.30
2024-03-05T15:33:54.756Z,48.86
2024-03-05T15:36:21.613Z,49.03
2024-03-05T15:38:48.628Z,49.33
2024-03-05T15:41:16.432Z,50.58
2024-03-05T15:43:43.471Z,49.96
2024-03-05T15:46:10.395Z,49.31
2024-03-05T15:48:37.218Z,50.93
2024-03-05T15:51:04.284Z,51.37
2024-03-05T15:53:31.296Z,51.17
2024-03-05T15:56:13.346Z,51.57
2024-03-05T15:58:43.856Z,50.86
2024-03-05T16:01:11.703Z,49.80
2024-03-05T16:03:57.466Z,50.34
2024-03-05T16:06:31.353Z,49.99
2024-03-05T16:08:58.923Z,49.75
2024-03-05T16:11:26.422Z,49.93
2024-03-05T16:13:54.889Z,49.96
2024-03-05T16:16:23.616Z,49.70
2024-03-05T16:18:50.338Z,49.54
2024-03-05T16:21:17.581Z,49.43
2024-03-05T16:23:44.874Z,49.61
2024-03-05T16:26:11.774Z,49.70
2024-03-05T16:28:39.477Z,49.52
2024-03-05T16:31:06.455Z,49.67
2024-03-05T16:33:33.948Z,48.59
2024-03-05T16:36:00.869Z,48.64
2024-03-05T16:38:29.982Z,49.58
2024-03-05T16:40:57.860Z,49.54
2024-03-05T16:43:25.311Z,49.56
2024-03-05T16:45:53.455Z,49.48
2024-03-05T16:48:20.539Z,49.44
2024-03-05T16:50:47.417Z,49.41
2024-03-05T16:53:14.323Z,49.89
2024-03-05T16:55:43.013Z,49.70
2024-03-05T16:58:13.760Z,48.76
2024-03-05T17:00:53.478Z,48.70
2024-03-05T17:03:22.584Z,49.14
2024-03-05T17:05:53.713Z,49.06
2024-03-05T17:08:21.450Z,48.49
2024-03-05T17:10:49.496Z,48.43
2024-03-05T17:13:22.472Z,47.74
2024-03-05T17:15:55.979Z,47.54
2024-03-05T17:18:24.576Z,47.15
2024-03-05T17:20:52.148Z,47.55
2024-03-05T17:23:23.309Z,47.24
2024-03-05T17:25:52.680Z,47.70
2024-03-05T17:28:19.789Z,47.83
2024-03-05T17:30:47.190Z,48.22
2024-03-05T17:33:15.812Z,48.15
2024-03-05T17:35:43.501Z,48.49
2024-03-05T17:38:14.615Z,48.48
2024-03-05T17:40:42.101Z,49.28
2024-03-05T17:43:09.311Z,49.03
2024-03-05T17:45:36.290Z,49.04
2024-03-05T17:48:07.057Z,48.90
2024-03-05T17:50:37.845Z,49.04
2024-03-05T17:53:06.458Z,49.20
2024-03-05T17:55:35.877Z,49.51
2024-03-05T17:58:05.246Z,49.47
2024-03-05T18:00:42.585Z,49.66
2024-03-05T18:03:11.951Z,49.52
2024-03-05T18:05:39.852Z,50.31
2024-03-05T18:08:07.284Z,50.21
2024-03-05T18:10:35.864Z,50.54
2024-03-05T18:13:05.953Z,51.25
2024-03-05T18:15:33.162Z,51.36
2024-03-05T18:18:00.115Z,51.83
2024-03-05T18:20:29.856Z,51.62
2024-03-05T18:23:00.569Z,52.28
2024-03-05T18:25:34.917Z,52.41
2024-03-05T18:28:02.672Z,52.69
2024-03-05T18:30:29.650Z,52.48
2024-03-05T18:32:57.001Z,52.93
2024-03-05T18:35:24.804Z,52.87
2024-03-05T18:37:51.716Z,52.84
2024-03-05T18:40:18.749Z,52.65
2024-03-05T18:42:49.515Z,53.83
2024-03-05T18:45:17.812Z,54.58
2024-03-05T18:47:54.807Z,54.44
2024-03-05T18:50:30.298Z,54.40
2024-03-05T18:52:58.434Z,54.51
2024-03-05T18:55:25.748Z,54.95
2024-03-05T18:57:53.804Z,54.81
2024-03-05T19:00:20.823Z,54.73
2024-03-05T19:02:52.257Z,55.11
2024-03-05T19:05:20.201Z,55.11
2024-03-05T19:07:49.028Z,54.85
2024-03-05T19:10:17.879Z,54.96
2024-03-05T19:12:45.440Z,54.82
2024-03-05T19:15:18.520Z,54.86
2024-03-05T19:17:48.830Z,55.58
2024-03-05T19:20:16.247Z,55.26
2024-03-05T19:22:43.784Z,55.42
2024-03-05T19:25:12.814Z,55.02
2024-03-05T19:27:41.233Z,54.95
2024-03-05T19:30:11.680Z,55.63
2024-03-05T19:32:40.426Z,55.52
2024-03-05T19:35:11.405Z,55.72
2024-03-05T19:37:42.974Z,56.10
2024-03-05T19:40:18.132Z,55.79
2024-03-05T19:42:48.021Z,55.82
2024-03-05T19:45:15.224Z,55.92
2024-03-05T19:47:42.501Z,56.04
2024-03-05T19:50:14.520Z,56.23
2024-03-05T19:52:41.690Z,56.27
2024-03-05T19:55:09.438Z,56.30
2024-03-05T19:57:36.657Z,56.22
2024-03-05T20:00:13.072Z,56.49
2024-03-05T20:02:40.361Z,56.05
2024-03-05T20:05:07.617Z,56.27
2024-03-05T20:07:34.552Z,56.17
2024-03-05T20:10:02.243Z,56.09
2024-03-05T20:12:29.409Z,56.21
2024-03-05T20:14:56.403Z,56.26
2024-03-05T20:17:25.417Z,56.19
2024-03-05T20:19:54.084Z,56.04
2024-03-05T20:22:21.102Z,56.23
2024-03-05T20:24:48.555Z,56.12
2024-03-05T20:27:17.065Z,56.13
2024-03-05T20:29:43.938Z,56.22
2024-03-05T20:32:11.022Z,55.97
2024-03-05T20:34:39.393Z,56.21
2024-03-05T20:37:06.436Z,55.86
2024-03-05T20:39:33.236Z,56.09
2024-03-05T20:42:00.091Z,56.01
2024-03-05T20:44:26.914Z,56.04
2024-03-05T20:46:53.813Z,56.65
2024-03-05T20:49:20.667Z,56.16
2024-03-05T20:51:47.463Z,56.41
2024-03-05T20:54:14.463Z,56.77
2024-03-05T20:56:41.310Z,57.16
2024-03-05T20:59:08.147Z,56.68
2024-03-05T21:01:37.797Z,56.34
2024-03-05T21:04:06.184Z,56.35
2024-03-05T21:06:33.840Z,56.31
2024-03-05T21:09:01.241Z,56.31
2024-03-05T21:11:28.299Z,56.84
2024-03-05T21:13:56.204Z,56.82
2024-03-05T21:16:23.156Z,57.46
2024-03-05T21:18:51.219Z,57.14
2024-03-05T21:21:18.168Z,57.29
2024-03-05T21:23:45.150Z,56.91
2024-03-05T21:26:27.424Z,56.94
2024-03-05T21:29:01.193Z,57.01
2024-03-05T21:31:30.040Z,56.66
2024-03-05T21:33:56.962Z,56.31
2024-03-05T21:36:27.346Z,56.30
2024-03-05T21:38:54.555Z,56.32
2024-03-05T21:41:21.395Z,56.47
2024-03-05T21:43:48.370Z,56.60
2024-03-05T21:46:15.237Z,57.02
2024-03-05T21:48:44.859Z,57.16
2024-03-05T21:51:15.573Z,56.81
2024-03-05T21:53:43.876Z,56.90
2024-03-05T21:56:11.222Z,57.34
2024-03-05T21:58:39.751Z,56.85
2024-03-05T22:01:06.892Z,56.60
2024-03-05T22:03:33.760Z,57.18
2024-03-05T22:06:08.105Z,57.34
2024-03-05T22:08:39.245Z,57.06
2024-03-05T22:11:06.128Z,56.90
2024-03-05T22:13:33.059Z,57.04
2024-03-05T22:16:00.181Z,57.96
2024-03-05T22:18:27.797Z,58.35
2024-03-05T22:20:57.245Z,59.19
2024-03-05T22:23:24.216Z,59.74
2024-03-05T22:25:51.066Z,59.34
2024-03-05T22:28:18.095Z,59.24
2024-03-05T22:30:45.194Z,58.85
2024-03-05T22:33:12.237Z,58.72
2024-03-05T22:35:39.461Z,59.06
2024-03-05T22:38:06.739Z,59.20
2024-03-05T22:40:33.631Z,58.78
2024-03-05T22:43:00.444Z,59.32
2024-03-05T22:45:28.940Z,59.47
2024-03-05T22:47:55.873Z,59.41
2024-03-05T22:50:23.108Z,59.53
2024-03-05T22:52:52.054Z,59.29
2024-03-05T22:55:19.074Z,59.77
2024-03-05T22:57:45.971Z,59.47
2024-03-05T23:00:23.839Z,59.98
2024-03-05T23:02:55.000Z,59.77
2024-03-05T23:05:22.343Z,60.56
2024-03-05T23:07:49.320Z,60.78
2024-03-05T23:10:17.555Z,60.06
2024-03-05T23:12:45.120Z,60.17
2024-03-05T23:15:16.632Z,60.58
2024-03-05T23:17:44.429Z,60.19
2024-03-05T23:20:12.419Z,59.67
2024-03-05T23:22:40.292Z,59.96
2024-03-05T23:25:08.164Z,60.27
2024-03-05T23:27:35.569Z,60.52
2024-03-05T23:30:04.117Z,60.56
2024-03-05T23:32:32.359Z,60.33
2024-03-05T23:35:00.210Z,60.33
2024-03-05T23:37:27.188Z,60.03
2024-03-05T23:39:55.003Z,60.52
2024-03-05T23:42:21.930Z,60.29
2024-03-05T23:44:48.891Z,60.75
2024-03-05T23:47:16.314Z,61.30
2024-03-05T23:49:44.937Z,61.84
2024-03-05T23:52:11.852Z,61.53
2024-03-05T23:54:38.616Z,62.25
2024-03-05T23:57:05.483Z,61.45
2024-03-05T23:59:32.364Z,62.02
